createdAt,value
2022-10-17T00:02:18.411Z,17.90
2022-10-17T00:04:45.243Z,17.90
2022-10-17T00:07:12.050Z,17.90
2022-10-17T00:09:41.833Z,17.90
2022-10-17T00:12:08.713Z,17.90
2022-10-17T00:14:35.757Z,17.90
2022-10-17T00:17:02.800Z,17.80
2022-10-17T00:19:29.563Z,17.80
2022-10-17T00:21:56.479Z,17.80
2022-10-17T00:24:23.304Z,17.80
2022-10-17T00:26:50.094Z,17.80
2022-10-17T00:29:16.923Z,17.70
2022-10-17T00:31:43.819Z,17.70
2022-10-17T00:34:10.632Z,17.70
2022-10-17T00:36:37.679Z,17.70
2022-10-17T00:39:04.562Z,17.70
2022-10-17T00:41:33.378Z,17.60
2022-10-17T00:44:01.799Z,17.60
2022-10-17T00:46:35.368Z,17.60
2022-10-17T00:49:07.335Z,17.60
2022-10-17T00:51:40.944Z,17.60
2022-10-17T00:54:09.646Z,17.50
2022-10-17T00:56:36.946Z,17.50
2022-10-17T00:59:04.003Z,17.50
2022-10-17T01:01:31.080Z,17.50
2022-10-17T01:03:57.910Z,17.50
2022-10-17T01:06:24.731Z,17.40
2022-10-17T01:08:51.690Z,17.40
2022-10-17T01:11:39.938Z,17.40
2022-10-17T01:14:10.326Z,17.40
2022-10-17T01:16:42.990Z,17.30
2022-10-17T01:19:34.844Z,17.30
2022-10-17T01:22:39.971Z,17.30
2022-10-17T01:25:18.663Z,17.30
2022-10-17T01:27:51.696Z,17.30
2022-10-17T01:30:56.737Z,17.30
2022-10-17T01:33:35.816Z,17.30
2022-10-17T01:36:25.235Z,17.30
2022-10-17T01:39:11.470Z,17.40
2022-10-17T01:41:47.012Z,17.40
2022-10-17T01:44:13.788Z,17.40
2022-10-17T01:46:43.708Z,17.40
2022-10-17T01:49:12.809Z,17.40
2022-10-17T01:51:48.140Z,17.50
2022-10-17T01:54:25.875Z,17.50
2022-10-17T01:56:58.743Z,17.50
2022-10-17T01:59:47.687Z,17.50
2022-10-17T02:02:17.698Z,17.50
2022-10-17T02:04:47.194Z,17.50
2022-10-17T02:07:14.018Z,17.50
2022-10-17T02:09:41.099Z,17.50
2022-10-17T02:12:22.867Z,17.50
2022-10-17T02:15:13.891Z,17.50
2022-10-17T02:17:59.458Z,17.40
2022-10-17T02:20:37.589Z,17.50
2022-10-17T02:23:39.815Z,17.40
2022-10-17T02:26:24.866Z,17.40
2022-10-17T02:29:07.215Z,17.30
2022-10-17T02:31:43.369Z,17.30
2022-10-17T02:34:29.221Z,17.30
2022-10-17T02:37:00.989Z,17.30
2022-10-17T02:39:29.258Z,17.20
2022-10-17T02:41:58.973Z,17.20
2022-10-17T02:44:28.401Z,17.20
2022-10-17T02:47:11.409Z,17.20
2022-10-17T02:49:44.853Z,17.20
2022-10-17T02:52:22.385Z,17.20
2022-10-17T02:54:58.905Z,17.10
2022-10-17T02:57:31.746Z,17.10
2022-10-17T03:00:00.950Z,17.10
2022-10-17T03:02:28.656Z,17.10
2022-10-17T03:04:56.438Z,17.10
2022-10-17T03:07:23.316Z,17.00
2022-10-17T03:09:50.061Z,17.00
2022-10-17T03:12:16.840Z,17.00
2022-10-17T03:14:43.704Z,16.90
2022-10-17T03:17:10.521Z,16.90
2022-10-17T03:19:37.291Z,16.90
2022-10-17T03:22:04.133Z,16.90
2022-10-17T03:24:30.913Z,16.90
2022-10-17T03:26:57.674Z,16.80
2022-10-17T03:29:24.570Z,16.90
2022-10-17T03:31:51.348Z,16.90
2022-10-17T03:34:18.903Z,16.90
2022-10-17T03:36:46.285Z,16.90
2022-10-17T03:39:13.352Z,16.90
2022-10-17T03:41:40.143Z,16.90
2022-10-17T03:44:07.027Z,16.90
2022-10-17T03:46:33.879Z,16.90
2022-10-17T03:49:00.623Z,16.90
2022-10-17T03:51:27.490Z,16.90
2022-10-17T03:53:54.424Z,16.90
2022-10-17T03:56:23.597Z,16.90
2022-10-17T03:58:50.582Z,16.80
2022-10-17T04:01:18.777Z,16.90
2022-10-17T04:03:50.577Z,16.90
2022-10-17T04:06:17.796Z,16.80
2022-10-17T04:08:44.824Z,16.80
2022-10-17T04:11:15.350Z,16.80
2022-10-17T04:13:42.265Z,16.80
2022-10-17T04:16:13.406Z,16.70
2022-10-17T04:18:40.445Z,16.80
2022-10-17T04:21:08.198Z,16.80
2022-10-17T04:23:35.725Z,16.70
2022-10-17T04:26:03.628Z,16.70
2022-10-17T04:28:31.281Z,16.70
2022-10-17T04:30:59.501Z,16.70
2022-10-17T04:33:26.309Z,16.70
2022-10-17T04:36:00.841Z,16.70
2022-10-17T04:38:29.012Z,16.70
2022-10-17T04:41:03.326Z,16.70
2022-10-17T04:43:37.935Z,16.70
2022-10-17T04:46:07.747Z,16.70
2022-10-17T04:48:35.078Z,16.60
2022-10-17T04:51:25.945Z,16.60
2022-10-17T04:53:53.502Z,16.60
2022-10-17T04:56:22.822Z,16.60
2022-10-17T04:58:50.602Z,16.60
2022-10-17T05:01:19.846Z,16.60
2022-10-17T05:03:47.206Z,16.50
2022-10-17T05:06:16.586Z,16.50
2022-10-17T05:08:44.437Z,16.60
2022-10-17T05:11:18.145Z,16.50
2022-10-17T05:13:45.495Z,16.50
2022-10-17T05:16:12.364Z,16.60
2022-10-17T05:18:39.189Z,16.60
2022-10-17T05:21:06.129Z,16.60
2022-10-17T05:23:33.019Z,16.60
2022-10-17T05:25:59.878Z,16.60
2022-10-17T05:28:27.549Z,16.50
2022-10-17T05:30:54.413Z,16.50
2022-10-17T05:33:22.958Z,16.60
2022-10-17T05:35:49.838Z,16.60
2022-10-17T05:38:16.638Z,16.50
2022-10-17T05:40:43.431Z,16.60
2022-10-17T05:43:10.261Z,16.60
2022-10-17T05:45:37.278Z,16.60
2022-10-17T05:48:04.228Z,16.60
2022-10-17T05:50:30.993Z,16.60
2022-10-17T05:52:57.868Z,16.60
2022-10-17T05:55:24.697Z,16.60
2022-10-17T05:57:52.783Z,16.60
2022-10-17T06:00:20.641Z,16.60
2022-10-17T06:02:48.598Z,16.60
2022-10-17T06:05:15.773Z,16.60
2022-10-17T06:07:43.259Z,16.60
2022-10-17T06:10:12.920Z,16.70
2022-10-17T06:12:39.977Z,16.70
2022-10-17T06:15:07.277Z,16.70
2022-10-17T06:17:34.130Z,16.70
2022-10-17T06:20:00.932Z,16.80
2022-10-17T06:22:28.038Z,16.80
2022-10-17T06:24:55.051Z,16.80
2022-10-17T06:27:21.881Z,16.80
2022-10-17T06:29:48.951Z,16.80
2022-10-17T06:32:15.703Z,16.80
2022-10-17T06:34:42.529Z,16.80
2022-10-17T06:37:09.249Z,16.80
2022-10-17T06:39:36.483Z,16.80
2022-10-17T06:42:04.278Z,16.80
2022-10-17T06:44:31.939Z,16.80
2022-10-17T06:47:02.038Z,16.80
2022-10-17T06:49:28.846Z,16.80
2022-10-17T06:51:55.998Z,16.90
2022-10-17T06:54:22.783Z,16.90
2022-10-17T06:56:49.734Z,16.90
2022-10-17T06:59:16.672Z,16.90
2022-10-17T07:01:46.240Z,16.90
2022-10-17T07:04:14.530Z,17.00
2022-10-17T07:06:41.383Z,17.00
2022-10-17T07:09:08.243Z,17.00
2022-10-17T07:11:37.811Z,17.10
2022-10-17T07:14:04.667Z,17.10
2022-10-17T07:16:31.730Z,17.10
2022-10-17T07:18:58.508Z,17.10
2022-10-17T07:21:25.543Z,17.20
2022-10-17T07:23:52.299Z,17.20
2022-10-17T07:26:20.288Z,17.20
2022-10-17T07:28:48.271Z,17.30
2022-10-17T07:31:17.723Z,17.30
2022-10-17T07:36:13.046Z,17.30
2022-10-17T07:38:40.139Z,17.40
2022-10-17T07:41:09.147Z,17.40
2022-10-17T07:43:36.925Z,17.40
2022-10-17T07:46:05.815Z,17.50
2022-10-17T07:48:32.913Z,17.50
2022-10-17T07:51:02.916Z,17.50
2022-10-17T07:53:29.704Z,17.50
2022-10-17T07:55:56.476Z,17.60
2022-10-17T07:58:23.422Z,17.60
2022-10-17T08:00:51.204Z,17.70
2022-10-17T08:03:18.063Z,17.70
2022-10-17T08:05:45.077Z,17.70
2022-10-17T08:08:11.886Z,17.70
2022-10-17T08:10:38.648Z,17.80
2022-10-17T08:13:05.489Z,17.80
2022-10-17T08:15:32.339Z,17.80
2022-10-17T08:17:59.647Z,17.90
2022-10-17T08:20:26.898Z,17.90
2022-10-17T08:22:56.739Z,17.90
2022-10-17T08:25:23.907Z,18.00
2022-10-17T08:27:50.729Z,18.10
2022-10-17T08:30:17.917Z,18.10
2022-10-17T08:32:44.981Z,18.10
2022-10-17T08:35:11.877Z,18.20
2022-10-17T08:37:38.655Z,18.20
2022-10-17T08:40:06.025Z,18.20
2022-10-17T08:42:41.763Z,18.20
2022-10-17T08:45:29.903Z,18.20
2022-10-17T08:48:11.026Z,18.30
2022-10-17T08:50:42.682Z,18.30
2022-10-17T08:53:19.887Z,18.30
2022-10-17T08:55:49.350Z,18.40
2022-10-17T08:58:19.456Z,18.40
2022-10-17T09:01:02.119Z,18.40
2022-10-17T09:03:37.846Z,18.50
2022-10-17T09:06:29.883Z,18.50
2022-10-17T09:09:05.971Z,18.50
2022-10-17T09:11:41.955Z,18.50
2022-10-17T09:14:08.796Z,18.50
2022-10-17T09:16:56.305Z,18.60
2022-10-17T09:19:32.186Z,18.60
2022-10-17T09:22:04.408Z,18.60
2022-10-17T09:24:50.511Z,18.70
2022-10-17T09:27:32.624Z,18.80
2022-10-17T09:30:51.558Z,18.80
2022-10-17T09:33:53.300Z,18.80
2022-10-17T09:36:30.418Z,18.90
2022-10-17T09:39:01.788Z,18.90
2022-10-17T09:41:48.944Z,19.00
2022-10-17T09:44:22.567Z,19.00
2022-10-17T09:47:14.320Z,19.00
2022-10-17T09:49:43.631Z,19.10
2022-10-17T09:52:47.853Z,19.10
2022-10-17T09:55:31.136Z,19.20
2022-10-17T09:58:03.772Z,19.20
2022-10-17T10:00:50.120Z,19.20
2022-10-17T10:03:20.979Z,19.30
2022-10-17T10:06:05.305Z,19.30
2022-10-17T10:08:37.868Z,19.40
2022-10-17T10:11:11.810Z,19.40
2022-10-17T10:13:40.667Z,19.50
2022-10-17T10:16:30.070Z,19.40
2022-10-17T10:18:57.431Z,19.50
2022-10-17T10:21:26.974Z,19.50
2022-10-17T10:23:59.711Z,19.60
2022-10-17T10:26:30.871Z,19.60
2022-10-17T10:29:02.181Z,19.70
2022-10-17T10:31:35.761Z,19.70
2022-10-17T10:34:21.496Z,19.70
2022-10-17T10:36:53.497Z,19.70
2022-10-17T10:39:29.866Z,19.80
2022-10-17T10:41:56.889Z,19.90
2022-10-17T10:44:27.196Z,19.90
2022-10-17T10:47:08.666Z,19.90
2022-10-17T10:49:35.864Z,19.90
2022-10-17T10:52:04.511Z,20.00
2022-10-17T10:54:46.644Z,20.00
2022-10-17T10:57:21.416Z,20.00
2022-10-17T10:59:56.040Z,20.00
2022-10-17T11:02:47.820Z,20.00
2022-10-17T11:05:23.699Z,20.10
2022-10-17T11:07:58.347Z,20.10
2022-10-17T11:10:44.604Z,20.10
2022-10-17T11:13:11.419Z,20.30
2022-10-17T11:15:51.780Z,20.30
2022-10-17T11:18:28.843Z,20.30
2022-10-17T11:21:15.199Z,20.30
2022-10-17T11:23:52.030Z,20.40
2022-10-17T11:26:27.348Z,20.40
2022-10-17T11:28:56.086Z,20.40
2022-10-17T11:31:35.000Z,20.50
2022-10-17T11:34:12.007Z,20.50
2022-10-17T11:36:44.071Z,20.50
2022-10-17T11:39:10.862Z,20.50
2022-10-17T11:41:46.752Z,20.50
2022-10-17T11:44:38.752Z,20.60
2022-10-17T11:47:11.840Z,20.60
2022-10-17T11:49:47.290Z,20.60
2022-10-17T11:53:02.909Z,20.70
2022-10-17T11:55:31.668Z,20.60
2022-10-17T11:58:24.495Z,20.70
2022-10-17T12:01:00.648Z,20.60
2022-10-17T12:03:37.560Z,20.70
2022-10-17T12:06:16.339Z,20.70
2022-10-17T12:08:55.347Z,20.70
2022-10-17T12:11:42.168Z,20.70
2022-10-17T12:14:33.611Z,20.70
2022-10-17T12:17:01.646Z,20.80
2022-10-17T12:19:32.659Z,20.80
2022-10-17T12:22:04.978Z,20.90
2022-10-17T12:24:42.294Z,20.90
2022-10-17T12:27:34.661Z,20.90
2022-10-17T12:30:12.162Z,21.00
2022-10-17T12:33:05.780Z,21.00
2022-10-17T12:35:36.139Z,21.10
2022-10-17T12:38:19.477Z,21.10
2022-10-17T12:40:50.781Z,21.10
2022-10-17T12:43:17.540Z,21.10
2022-10-17T12:45:54.442Z,21.10
2022-10-17T12:48:39.584Z,21.10
2022-10-17T12:54:00.089Z,21.10
2022-10-17T12:56:40.621Z,21.10
2022-10-17T12:59:25.198Z,21.10
2022-10-17T13:01:55.685Z,21.10
2022-10-17T13:04:23.570Z,21.10
2022-10-17T13:06:55.128Z,21.10
2022-10-17T13:09:24.963Z,21.10
2022-10-17T13:11:52.090Z,21.10
2022-10-17T13:14:21.875Z,21.10
2022-10-17T13:17:06.591Z,21.10
2022-10-17T13:19:45.212Z,21.10
2022-10-17T13:22:18.694Z,21.00
2022-10-17T13:24:45.906Z,21.10
2022-10-17T13:27:47.996Z,21.10
2022-10-17T13:30:32.360Z,21.20
2022-10-17T13:33:00.750Z,21.20
2022-10-17T13:35:58.924Z,21.20
2022-10-17T13:38:28.658Z,21.20
2022-10-17T13:41:05.901Z,21.20
2022-10-17T13:43:42.906Z,21.20
2022-10-17T13:46:36.862Z,21.20
2022-10-17T13:49:12.799Z,21.20
2022-10-17T13:51:44.142Z,21.20
2022-10-17T13:54:34.743Z,21.20
2022-10-17T13:57:02.959Z,21.20
2022-10-17T13:59:39.716Z,21.20
2022-10-17T14:02:13.532Z,21.20
2022-10-17T14:05:11.642Z,21.10
2022-10-17T14:07:58.078Z,21.10
2022-10-17T14:10:37.453Z,21.10
2022-10-17T14:13:08.220Z,21.00
2022-10-17T14:15:36.766Z,21.00
2022-10-17T14:18:09.230Z,20.90
2022-10-17T14:23:31.995Z,20.90
2022-10-17T14:26:17.077Z,20.90
2022-10-17T14:28:47.077Z,20.90
2022-10-17T14:31:20.318Z,20.90
2022-10-17T14:33:50.846Z,20.90
2022-10-17T14:36:19.532Z,20.90
2022-10-17T14:38:50.353Z,20.80
2022-10-17T14:41:42.462Z,20.80
2022-10-17T14:44:18.828Z,20.80
2022-10-17T14:46:50.798Z,20.80
2022-10-17T14:49:25.214Z,20.80
2022-10-17T14:52:18.645Z,20.80
2022-10-17T14:54:48.582Z,20.80
2022-10-17T14:57:43.504Z,20.80
2022-10-17T15:00:15.468Z,20.70
2022-10-17T15:02:42.397Z,20.70
2022-10-17T15:05:13.078Z,20.70
2022-10-17T15:07:40.769Z,20.70
2022-10-17T15:10:37.703Z,20.70
2022-10-17T15:15:57.316Z,20.70
2022-10-17T15:18:27.574Z,20.70
2022-10-17T15:21:04.573Z,20.70
2022-10-17T15:23:46.023Z,20.70
2022-10-17T15:26:44.753Z,20.70
2022-10-17T15:29:26.434Z,20.70
2022-10-17T15:31:54.476Z,20.60
2022-10-17T15:34:37.959Z,20.60
2022-10-17T15:37:08.570Z,20.60
2022-10-17T15:39:35.522Z,20.60
2022-10-17T15:42:02.438Z,20.60
2022-10-17T15:44:29.347Z,20.50
2022-10-17T15:46:57.027Z,20.50
2022-10-17T15:49:23.814Z,20.50
2022-10-17T15:51:55.117Z,20.50
2022-10-17T15:54:22.202Z,20.50
2022-10-17T15:56:54.991Z,20.50
2022-10-17T15:59:27.339Z,20.40
2022-10-17T16:01:54.153Z,20.40
2022-10-17T16:04:21.122Z,20.40
2022-10-17T16:06:49.285Z,20.40
2022-10-17T16:09:16.121Z,20.40
2022-10-17T16:11:44.337Z,20.40
2022-10-17T16:14:14.359Z,20.30
2022-10-17T16:16:41.825Z,20.30
2022-10-17T16:19:09.265Z,20.30
2022-10-17T16:21:39.004Z,20.30
2022-10-17T16:24:06.347Z,20.20
2022-10-17T16:26:33.194Z,20.20
2022-10-17T16:29:02.950Z,20.20
2022-10-17T16:31:40.495Z,20.20
2022-10-17T16:34:08.942Z,20.20
2022-10-17T16:36:35.900Z,20.20
2022-10-17T16:39:02.926Z,20.20
2022-10-17T16:41:32.355Z,20.20
2022-10-17T16:44:01.087Z,20.20
2022-10-17T16:46:29.797Z,20.20
2022-10-17T16:48:57.221Z,20.20
2022-10-17T16:51:24.378Z,20.10
2022-10-17T16:53:54.438Z,20.10
2022-10-17T16:56:23.392Z,20.10
2022-10-17T16:58:51.889Z,20.10
2022-10-17T17:01:21.259Z,20.10
2022-10-17T17:03:48.176Z,20.10
2022-10-17T17:06:19.214Z,20.10
2022-10-17T17:08:46.491Z,20.10
2022-10-17T17:11:15.299Z,20.10
2022-10-17T17:13:42.540Z,20.10
2022-10-17T17:16:16.575Z,20.10
2022-10-17T17:18:45.992Z,20.10
2022-10-17T17:21:13.978Z,20.10
2022-10-17T17:23:42.335Z,20.10
2022-10-17T17:26:16.189Z,20.10
2022-10-17T17:28:43.922Z,20.00
2022-10-17T17:31:13.763Z,20.00
2022-10-17T17:33:41.866Z,20.00
2022-10-17T17:36:12.276Z,20.00
2022-10-17T17:38:40.149Z,20.00
2022-10-17T17:41:07.388Z,20.00
2022-10-17T17:43:35.625Z,19.90
2022-10-17T17:46:02.841Z,19.90
2022-10-17T17:48:29.964Z,19.90
2022-10-17T17:50:56.950Z,19.90
2022-10-17T17:53:24.171Z,19.90
2022-10-17T17:56:14.178Z,19.90
2022-10-17T17:58:45.831Z,19.90
2022-10-17T18:01:18.797Z,19.90
2022-10-17T18:03:46.455Z,19.90
2022-10-17T18:06:13.893Z,19.90
2022-10-17T18:08:43.461Z,19.90
2022-10-17T18:11:10.397Z,19.80
2022-10-17T18:13:37.498Z,19.80
2022-10-17T18:16:12.679Z,19.80
2022-10-17T18:18:41.628Z,19.80
2022-10-17T18:21:09.711Z,19.80
2022-10-17T18:23:40.620Z,19.80
2022-10-17T18:26:08.012Z,19.80
2022-10-17T18:28:37.013Z,19.80
2022-10-17T18:31:28.911Z,19.80
2022-10-17T18:33:57.812Z,19.80
2022-10-17T18:36:26.270Z,19.70
2022-10-17T18:38:53.969Z,19.70
2022-10-17T18:41:23.019Z,19.70
2022-10-17T18:43:51.442Z,19.70
2022-10-17T18:46:19.608Z,19.70
2022-10-17T18:48:47.837Z,19.70
2022-10-17T18:51:18.398Z,19.70
2022-10-17T18:53:47.789Z,19.70
2022-10-17T18:56:15.450Z,19.70
2022-10-17T18:58:42.389Z,19.70
2022-10-17T19:01:15.573Z,19.60
2022-10-17T19:03:43.626Z,19.60
2022-10-17T19:06:13.286Z,19.60
2022-10-17T19:08:41.792Z,19.60
2022-10-17T19:11:22.859Z,19.60
2022-10-17T19:13:50.162Z,19.60
2022-10-17T19:16:29.971Z,19.60
2022-10-17T19:18:59.522Z,19.60
2022-10-17T19:21:26.459Z,19.60
2022-10-17T19:23:58.014Z,19.60
2022-10-17T19:26:26.209Z,19.50
2022-10-17T19:28:53.876Z,19.50
2022-10-17T19:31:26.473Z,19.50
2022-10-17T19:33:54.288Z,19.50
2022-10-17T19:36:22.861Z,19.50
2022-10-17T19:38:52.496Z,19.50
2022-10-17T19:41:19.298Z,19.50
2022-10-17T19:43:46.652Z,19.50
2022-10-17T19:46:16.175Z,19.40
2022-10-17T19:48:43.568Z,19.40
2022-10-17T19:51:15.365Z,19.40
2022-10-17T19:53:43.016Z,19.40
2022-10-17T19:56:11.525Z,19.30
2022-10-17T19:58:45.185Z,19.30
2022-10-17T20:01:18.292Z,19.30
2022-10-17T20:03:45.776Z,19.30
2022-10-17T20:06:13.220Z,19.30
2022-10-17T20:08:41.225Z,19.20
2022-10-17T20:11:16.644Z,19.20
2022-10-17T20:13:44.868Z,19.20
2022-10-17T20:16:16.205Z,19.10
2022-10-17T20:18:43.814Z,19.10
2022-10-17T20:21:13.360Z,19.10
2022-10-17T20:23:40.822Z,19.10
2022-10-17T20:26:25.895Z,19.00
2022-10-17T20:29:01.595Z,19.00
2022-10-17T20:31:29.052Z,19.00
2022-10-17T20:33:57.727Z,19.00
2022-10-17T20:36:25.493Z,18.90
2022-10-17T20:38:56.794Z,18.90
2022-10-17T20:41:24.566Z,18.90
2022-10-17T20:43:53.386Z,18.90
2022-10-17T20:46:35.514Z,18.90
2022-10-17T20:49:05.055Z,18.80
2022-10-17T20:51:32.178Z,18.80
2022-10-17T20:53:59.056Z,18.80
2022-10-17T20:56:29.292Z,18.80
2022-10-17T20:58:59.575Z,18.80
2022-10-17T21:01:27.327Z,18.80
2022-10-17T21:03:54.476Z,18.80
2022-10-17T21:06:22.673Z,18.70
2022-10-17T21:08:50.018Z,18.70
2022-10-17T21:11:19.189Z,18.70
2022-10-17T21:13:47.528Z,18.70
2022-10-17T21:16:18.956Z,18.60
2022-10-17T21:18:46.302Z,18.60
2022-10-17T21:21:15.623Z,18.60
2022-10-17T21:23:44.514Z,18.60
2022-10-17T21:26:12.772Z,18.60
2022-10-17T21:28:41.537Z,18.60
2022-10-17T21:31:26.305Z,18.60
2022-10-17T21:33:59.173Z,18.60
2022-10-17T21:36:27.124Z,18.50
2022-10-17T21:38:55.830Z,18.50
2022-10-17T21:41:25.668Z,18.50
2022-10-17T21:43:54.760Z,18.50
2022-10-17T21:46:21.813Z,18.50
2022-10-17T21:48:49.548Z,18.50
2022-10-17T21:51:18.851Z,18.40
2022-10-17T21:53:45.821Z,18.40
2022-10-17T21:56:18.175Z,18.40
2022-10-17T21:58:45.544Z,18.40
2022-10-17T22:01:19.023Z,18.30
2022-10-17T22:03:48.527Z,18.30
2022-10-17T22:06:38.679Z,18.30
2022-10-17T22:09:07.917Z,18.30
2022-10-17T22:11:35.624Z,18.30
2022-10-17T22:14:05.461Z,18.30
2022-10-17T22:16:33.128Z,18.30
2022-10-17T22:19:05.009Z,18.20
2022-10-17T22:21:34.350Z,18.20
2022-10-17T22:24:04.611Z,18.20
2022-10-17T22:26:33.292Z,18.20
2022-10-17T22:29:00.463Z,18.10
2022-10-17T22:31:27.590Z,18.10
2022-10-17T22:33:54.408Z,18.10
2022-10-17T22:36:21.211Z,18.10
2022-10-17T22:38:48.547Z,18.10
2022-10-17T22:41:15.327Z,18.10
2022-10-17T22:43:42.119Z,18.10
2022-10-17T22:46:10.101Z,18.00
2022-10-17T22:48:37.132Z,18.00
2022-10-17T22:51:04.143Z,18.00
2022-10-17T22:53:31.036Z,18.00
2022-10-17T22:56:05.419Z,18.00
2022-10-17T22:58:34.068Z,18.00
2022-10-17T23:01:01.932Z,18.00
2022-10-17T23:03:30.035Z,18.00
2022-10-17T23:05:57.324Z,18.00
2022-10-17T23:08:25.152Z,18.00
2022-10-17T23:10:52.129Z,17.90
2022-10-17T23:13:19.914Z,17.90
2022-10-17T23:15:49.450Z,17.90
2022-10-17T23:18:16.354Z,17.90
2022-10-17T23:20:43.181Z,17.90
2022-10-17T23:23:10.085Z,17.90
2022-10-17T23:25:36.901Z,17.90
2022-10-17T23:28:03.704Z,17.90
2022-10-17T23:30:32.651Z,17.80
2022-10-17T23:32:59.591Z,17.90
2022-10-17T23:35:26.479Z,17.80
2022-10-17T23:37:53.278Z,17.80
2022-10-17T23:40:20.109Z,17.80
2022-10-17T23:42:46.930Z,17.80
2022-10-17T23:45:13.830Z,17.80
2022-10-17T23:47:40.627Z,17.80
2022-10-17T23:50:07.959Z,17.80
2022-10-17T23:52:34.782Z,17.80
2022-10-17T23:55:01.530Z,17.80
2022-10-17T23:57:28.617Z,17.80
2022-10-17T23:59:55.599Z,17.80
